Aérodrome :
LOGIN :

S'inscrire | Disclaimer

   EN    FR    IT 

 










Légende :    VFR   VFR Marginal   IFR   IFR Intensif   IFR Très Intensif
Visi : 
Plafond : 
>= 8 km
>= 3000ft
5 à 8 km
1000 à 3000 ft
1500m à 5 km
500 à 1000 ft
800 à 1500m
200 à 500 ft
< 800m
< 200 ft
Symboles :   Orages  Brouillard  Fortes neiges  Fortes précipitations  Vent > 20 kt
SIGMETs :   Divers  Orages  Givrage  Turbulence  Onde Orograph.  Cendres Volcan.







- Altitude de l'aérodrome : 52 ft
- Code IATA : IOM
- Voir les cartes d'approche


EGNS - Isle of Man

DERNIER METAR :
  • 251020Z 23016KT 210V270 9999 FEW014 10/07 Q1007 NOSIG

METARs EXPIRÉS :
  • 250950Z 24017KT 210V270 9999 FEW012 BKN040 10/06 Q1007 NOSIG
  • 250920Z 24015KT 9999 FEW010 BKN015 09/06 Q1007 NOSIG
  • 250850Z 24016KT 9999 FEW010 BKN014 09/07 Q1007 NOSIG
  • 250820Z 24012KT 200V280 9999 FEW009 BKN012 10/07 Q1007 NOSIG
  • 250750Z 25014KT 210V280 9999 FEW009 BKN012 09/07 Q1007 NOSIG

TAF TAF EGNS
Valide du 25 à 09h jusqu'au 25 à 18h UTC


250800Z 2509/2518 24015KT 9999 FEW009 BKN012
BECMG 2509/2512 SCT012
PROB40
TEMPO 2512/2518 25020G30KT 7000 SHRA BKN012
Pas de NOTAMs connus pour ce terrain.



MET'MAP, la Météo Aéronautique d'un coup d'oeil ! - Copyright ORBIFLY Décembre 2007 - Disclaimer

ORBIFLY MET'MAP TEAM :

Programmation & Développement : Alexandra Zaïnal
Conception & Développement : Baudouin d'Aumeries
Co-Programmation & Développement : Marc-Olivier Méhu
Soutien technique & logistique : Manuel Goepfert

Contact : metmap@orbifly.com




SOURCES & CREDITS :

   NOAA